sensor_id;sensor_type;location;lat;lon;timestamp;pressure;altitude;pressure_sealevel;temperature;humidity
19112;BME280;9688;51.906;8.376;2023-01-06T00:01:21;101021.16;;;11.13;100.00
19112;BME280;9688;51.906;8.376;2023-01-06T00:04:06;101018.47;;;11.15;100.00
19112;BME280;9688;51.906;8.376;2023-01-06T00:06:52;101022.06;;;11.12;100.00
19112;BME280;9688;51.906;8.376;2023-01-06T00:09:37;101013.22;;;11.13;100.00
19112;BME280;9688;51.906;8.376;2023-01-06T00:12:22;101003.47;;;11.14;100.00
19112;BME280;9688;51.906;8.376;2023-01-06T00:15:09;100990.22;;;11.15;100.00
19112;BME280;9688;51.906;8.376;2023-01-06T00:17:56;100988.31;;;11.19;100.00
19112;BME280;9688;51.906;8.376;2023-01-06T00:20:42;100988.31;;;11.19;100.00
19112;BME280;9688;51.906;8.376;2023-01-06T00:23:27;100990.09;;;11.19;100.00
19112;BME280;9688;51.906;8.376;2023-01-06T00:26:13;100987.41;;;11.20;100.00
19112;BME280;9688;51.906;8.376;2023-01-06T00:28:59;100977.72;;;11.19;100.00
19112;BME280;9688;51.906;8.376;2023-01-06T00:31:44;100976.88;;;11.19;100.00
19112;BME280;9688;51.906;8.376;2023-01-06T00:34:30;100973.47;;;11.15;100.00
19112;BME280;9688;51.906;8.376;2023-01-06T00:37:16;100976.06;;;11.16;100.00
19112;BME280;9688;51.906;8.376;2023-01-06T00:40:05;100972.53;;;11.16;100.00
19112;BME280;9688;51.906;8.376;2023-01-06T00:42:51;100978.66;;;11.18;100.00
19112;BME280;9688;51.906;8.376;2023-01-06T00:45:36;100975.09;;;11.19;100.00
19112;BME280;9688;51.906;8.376;2023-01-06T00:48:21;100972.31;;;11.22;100.00
19112;BME280;9688;51.906;8.376;2023-01-06T00:51:08;100967.81;;;11.26;100.00
19112;BME280;9688;51.906;8.376;2023-01-06T00:53:54;100972.16;;;11.27;100.00
19112;BME280;9688;51.906;8.376;2023-01-06T00:56:40;100968.59;;;11.28;100.00
19112;BME280;9688;51.906;8.376;2023-01-06T00:59:26;100973.97;;;11.26;100.00
19112;BME280;9688;51.906;8.376;2023-01-06T01:02:12;100973.09;;;11.26;100.00
19112;BME280;9688;51.906;8.376;2023-01-06T01:04:57;100974.06;;;11.23;100.00
19112;BME280;9688;51.906;8.376;2023-01-06T01:07:44;100974.13;;;11.22;100.00
19112;BME280;9688;51.906;8.376;2023-01-06T01:10:29;100973.31;;;11.20;100.00
19112;BME280;9688;51.906;8.376;2023-01-06T01:13:15;100976.81;;;11.20;100.00
19112;BME280;9688;51.906;8.376;2023-01-06T01:16:03;100976.94;;;11.17;100.00
19112;BME280;9688;51.906;8.376;2023-01-06T01:18:48;100973.47;;;11.15;100.00
19112;BME280;9688;51.906;8.376;2023-01-06T01:21:34;100976.13;;;11.15;100.00
19112;BME280;9688;51.906;8.376;2023-01-06T01:24:21;100964.72;;;11.13;100.00
19112;BME280;9688;51.906;8.376;2023-01-06T01:27:07;100955.94;;;11.12;100.00
19112;BME280;9688;51.906;8.376;2023-01-06T01:29:53;100953.28;;;11.12;100.00
19112;BME280;9688;51.906;8.376;2023-01-06T01:32:38;100965.66;;;11.12;100.00
19112;BME280;9688;51.906;8.376;2023-01-06T01:35:24;100958.69;;;11.09;100.00
19112;BME280;9688;51.906;8.376;2023-01-06T01:38:09;100962.19;;;11.10;100.00
19112;BME280;9688;51.906;8.376;2023-01-06T01:40:56;100962.19;;;11.10;100.00
19112;BME280;9688;51.906;8.376;2023-01-06T01:43:44;100958.72;;;11.08;100.00
19112;BME280;9688;51.906;8.376;2023-01-06T01:46:31;100956.94;;;11.08;100.00
19112;BME280;9688;51.906;8.376;2023-01-06T01:49:21;100949.00;;;11.08;100.00
19112;BME280;9688;51.906;8.376;2023-01-06T01:52:09;100942.09;;;11.04;100.00
19112;BME280;9688;51.906;8.376;2023-01-06T01:54:56;100935.09;;;11.03;100.00
19112;BME280;9688;51.906;8.376;2023-01-06T01:57:46;100939.50;;;11.03;100.00
19112;BME280;9688;51.906;8.376;2023-01-06T02:00:33;100935.94;;;11.04;100.00
19112;BME280;9688;51.906;8.376;2023-01-06T02:03:21;100940.38;;;11.03;100.00
19112;BME280;9688;51.906;8.376;2023-01-06T02:06:12;100929.81;;;11.03;100.00
19112;BME280;9688;51.906;8.376;2023-01-06T02:09:08;100933.34;;;11.02;100.00
19112;BME280;9688;51.906;8.376;2023-01-06T02:11:55;100925.38;;;11.04;100.00
19112;BME280;9688;51.906;8.376;2023-01-06T02:14:43;100923.59;;;11.04;100.00
19112;BME280;9688;51.906;8.376;2023-01-06T02:17:45;100924.44;;;11.05;100.00
19112;BME280;9688;51.906;8.376;2023-01-06T02:20:56;100926.22;;;11.04;100.00
19112;BME280;9688;51.906;8.376;2023-01-06T02:24:05;100928.75;;;11.07;100.00
19112;BME280;9688;51.906;8.376;2023-01-06T02:27:10;100931.38;;;11.09;100.00
19112;BME280;9688;51.906;8.376;2023-01-06T02:33:30;100918.88;;;11.12;100.00
19112;BME280;9688;51.906;8.376;2023-01-06T02:36:32;100916.16;;;11.14;100.00
19112;BME280;9688;51.906;8.376;2023-01-06T02:39:31;100918.72;;;11.17;100.00
19112;BME280;9688;51.906;8.376;2023-01-06T02:42:27;100915.16;;;11.18;100.00
19112;BME280;9688;51.906;8.376;2023-01-06T02:45:18;100912.47;;;11.20;100.00
19112;BME280;9688;51.906;8.376;2023-01-06T02:48:10;100904.44;;;11.21;100.00
19112;BME280;9688;51.906;8.376;2023-01-06T02:51:04;100906.97;;;11.24;100.00
19112;BME280;9688;51.906;8.376;2023-01-06T02:53:58;100909.69;;;11.23;100.00
19112;BME280;9688;51.906;8.376;2023-01-06T02:56:53;100909.69;;;11.23;100.00
19112;BME280;9688;51.906;8.376;2023-01-06T02:59:47;100898.13;;;11.25;100.00
19112;BME280;9688;51.906;8.376;2023-01-06T03:02:37;100899.91;;;11.25;100.00
19112;BME280;9688;51.906;8.376;2023-01-06T03:05:26;100893.72;;;11.26;100.00
19112;BME280;9688;51.906;8.376;2023-01-06T03:08:16;100895.50;;;11.25;100.00
19112;BME280;9688;51.906;8.376;2023-01-06T03:11:04;100894.56;;;11.26;100.00
19112;BME280;9688;51.906;8.376;2023-01-06T03:13:52;100898.13;;;11.25;100.00
19112;BME280;9688;51.906;8.376;2023-01-06T03:16:42;100898.94;;;11.27;100.00
19112;BME280;9688;51.906;8.376;2023-01-06T03:19:28;100897.94;;;11.30;100.00
19112;BME280;9688;51.906;8.376;2023-01-06T03:22:15;100898.81;;;11.30;100.00
19112;BME280;9688;51.906;8.376;2023-01-06T03:25:03;100890.00;;;11.30;100.00
19112;BME280;9688;51.906;8.376;2023-01-06T03:27:49;100895.25;;;11.31;100.00
19112;BME280;9688;51.906;8.376;2023-01-06T03:30:42;100890.88;;;11.30;100.00
19112;BME280;9688;51.906;8.376;2023-01-06T03:33:34;100882.88;;;11.32;100.00
19112;BME280;9688;51.906;8.376;2023-01-06T03:36:28;100873.22;;;11.31;100.00
19112;BME280;9688;51.906;8.376;2023-01-06T03:39:23;100878.56;;;11.29;100.00
19112;BME280;9688;51.906;8.376;2023-01-06T03:42:26;100875.06;;;11.29;100.00
19112;BME280;9688;51.906;8.376;2023-01-06T03:45:41;100873.28;;;11.29;100.00
19112;BME280;9688;51.906;8.376;2023-01-06T03:48:34;100871.47;;;11.30;100.00
19112;BME280;9688;51.906;8.376;2023-01-06T03:51:35;100875.00;;;11.30;100.00
19112;BME280;9688;51.906;8.376;2023-01-06T03:54:32;100863.44;;;11.33;100.00
19112;BME280;9688;51.906;8.376;2023-01-06T03:57:23;100866.88;;;11.35;100.00
19112;BME280;9688;51.906;8.376;2023-01-06T04:00:12;100865.06;;;11.37;100.00
19112;BME280;9688;51.906;8.376;2023-01-06T04:03:00;100850.88;;;11.38;100.00
19112;BME280;9688;51.906;8.376;2023-01-06T04:05:46;100847.34;;;11.39;100.00
19112;BME280;9688;51.906;8.376;2023-01-06T04:08:32;100847.34;;;11.39;100.00
19112;BME280;9688;51.906;8.376;2023-01-06T04:11:17;100847.34;;;11.39;100.00
19112;BME280;9688;51.906;8.376;2023-01-06T04:14:22;100850.72;;;11.43;100.00
19112;BME280;9688;51.906;8.376;2023-01-06T04:17:08;100844.50;;;11.44;99.88
19112;BME280;9688;51.906;8.376;2023-01-06T04:19:53;100848.06;;;11.43;99.81
19112;BME280;9688;51.906;8.376;2023-01-06T04:22:39;100845.47;;;11.41;99.96
19112;BME280;9688;51.906;8.376;2023-01-06T04:25:25;100841.00;;;11.43;99.14
19112;BME280;9688;51.906;8.376;2023-01-06T04:28:10;100841.81;;;11.45;99.63
19112;BME280;9688;51.906;8.376;2023-01-06T04:30:58;100833.97;;;11.42;99.56
19112;BME280;9688;51.906;8.376;2023-01-06T04:33:44;100852.31;;;11.47;98.57
19112;BME280;9688;51.906;8.376;2023-01-06T04:36:29;100842.66;;;11.46;99.15
19112;BME280;9688;51.906;8.376;2023-01-06T04:39:15;100837.38;;;11.46;99.02
19112;BME280;9688;51.906;8.376;2023-01-06T04:42:01;100837.25;;;11.49;98.47
19112;BME280;9688;51.906;8.376;2023-01-06T04:44:46;100831.00;;;11.50;98.46
19112;BME280;9688;51.906;8.376;2023-01-06T04:47:33;100823.97;;;11.50;97.81
19112;BME280;9688;51.906;8.376;2023-01-06T04:50:19;100824.94;;;11.48;98.11
19112;BME280;9688;51.906;8.376;2023-01-06T04:53:05;100815.25;;;11.47;97.83
19112;BME280;9688;51.906;8.376;2023-01-06T04:55:51;100812.59;;;11.47;97.96
19112;BME280;9688;51.906;8.376;2023-01-06T04:58:36;100796.72;;;11.47;97.52
19112;BME280;9688;51.906;8.376;2023-01-06T05:01:22;100800.34;;;11.44;97.63
19112;BME280;9688;51.906;8.376;2023-01-06T05:04:10;100796.91;;;11.42;97.70
19112;BME280;9688;51.906;8.376;2023-01-06T05:06:55;100795.06;;;11.44;97.01
19112;BME280;9688;51.906;8.376;2023-01-06T05:09:41;100795.94;;;11.45;97.60
19112;BME280;9688;51.906;8.376;2023-01-06T05:12:29;100786.34;;;11.42;97.21
19112;BME280;9688;51.906;8.376;2023-01-06T05:15:15;100780.22;;;11.40;96.85
19112;BME280;9688;51.906;8.376;2023-01-06T05:18:01;100780.22;;;11.40;96.78
19112;BME280;9688;51.906;8.376;2023-01-06T05:20:49;100774.94;;;11.40;96.15
19112;BME280;9688;51.906;8.376;2023-01-06T05:23:36;100767.00;;;11.40;96.66
19112;BME280;9688;51.906;8.376;2023-01-06T05:26:23;100769.69;;;11.38;96.18
19112;BME280;9688;51.906;8.376;2023-01-06T05:29:11;100774.00;;;11.41;96.68
19112;BME280;9688;51.906;8.376;2023-01-06T05:31:58;100776.72;;;11.39;95.74
19112;BME280;9688;51.906;8.376;2023-01-06T05:34:43;100780.09;;;11.43;96.76
19112;BME280;9688;51.906;8.376;2023-01-06T05:37:30;100775.66;;;11.44;95.46
19112;BME280;9688;51.906;8.376;2023-01-06T05:40:15;100779.94;;;11.48;96.20
19112;BME280;9688;51.906;8.376;2023-01-06T05:43:01;100781.66;;;11.49;95.56
19112;BME280;9688;51.906;8.376;2023-01-06T05:45:47;100782.47;;;11.51;95.76
19112;BME280;9688;51.906;8.376;2023-01-06T05:48:33;100783.25;;;11.53;95.75
19112;BME280;9688;51.906;8.376;2023-01-06T05:51:18;100778.75;;;11.55;95.12
19112;BME280;9688;51.906;8.376;2023-01-06T05:54:07;100770.81;;;11.55;95.03
19112;BME280;9688;51.906;8.376;2023-01-06T05:56:53;100775.19;;;11.56;94.90
19112;BME280;9688;51.906;8.376;2023-01-06T05:59:38;100767.19;;;11.57;94.25
19112;BME280;9688;51.906;8.376;2023-01-06T06:02:24;100776.88;;;11.58;94.57
19112;BME280;9688;51.906;8.376;2023-01-06T06:05:10;100784.69;;;11.61;93.94
19112;BME280;9688;51.906;8.376;2023-01-06T06:07:56;100769.56;;;11.64;93.59
19112;BME280;9688;51.906;8.376;2023-01-06T06:10:42;100769.66;;;11.62;93.78
19112;BME280;9688;51.906;8.376;2023-01-06T06:13:28;100774.94;;;11.62;92.85
19112;BME280;9688;51.906;8.376;2023-01-06T06:16:15;100768.72;;;11.63;92.57
19112;BME280;9688;51.906;8.376;2023-01-06T06:19:01;100772.22;;;11.64;92.70
19112;BME280;9688;51.906;8.376;2023-01-06T06:21:47;100767.81;;;11.64;93.11
19112;BME280;9688;51.906;8.376;2023-01-06T06:24:32;100772.22;;;11.64;92.25
19112;BME280;9688;51.906;8.376;2023-01-06T06:27:19;100764.28;;;11.64;91.75
19112;BME280;9688;51.906;8.376;2023-01-06T06:30:08;100770.50;;;11.63;92.31
19112;BME280;9688;51.906;8.376;2023-01-06T06:32:53;100765.22;;;11.63;91.37
19112;BME280;9688;51.906;8.376;2023-01-06T06:35:38;100766.06;;;11.63;91.38
19112;BME280;9688;51.906;8.376;2023-01-06T06:38:24;100766.91;;;11.64;91.45
19112;BME280;9688;51.906;8.376;2023-01-06T06:41:10;100761.63;;;11.64;91.31
19112;BME280;9688;51.906;8.376;2023-01-06T06:43:57;100754.63;;;11.63;90.92
19112;BME280;9688;51.906;8.376;2023-01-06T06:46:43;100761.63;;;11.64;91.54
19112;BME280;9688;51.906;8.376;2023-01-06T06:49:28;100751.84;;;11.66;90.79
19112;BME280;9688;51.906;8.376;2023-01-06T06:52:15;100755.47;;;11.63;91.17
19112;BME280;9688;51.906;8.376;2023-01-06T06:55:01;100762.56;;;11.63;90.96
19112;BME280;9688;51.906;8.376;2023-01-06T06:57:47;100761.72;;;11.62;90.79
19112;BME280;9688;51.906;8.376;2023-01-06T07:00:34;100752.78;;;11.65;90.37
19112;BME280;9688;51.906;8.376;2023-01-06T07:03:20;100759.75;;;11.67;91.04
19112;BME280;9688;51.906;8.376;2023-01-06T07:06:07;100757.94;;;11.68;90.18
19112;BME280;9688;51.906;8.376;2023-01-06T07:08:53;100751.78;;;11.67;90.62
19112;BME280;9688;51.906;8.376;2023-01-06T07:11:38;100742.91;;;11.68;90.65
19112;BME280;9688;51.906;8.376;2023-01-06T07:14:24;100750.00;;;11.68;91.17
19112;BME280;9688;51.906;8.376;2023-01-06T07:17:10;100741.19;;;11.67;90.12
19112;BME280;9688;51.906;8.376;2023-01-06T07:19:56;100746.53;;;11.66;90.67
19112;BME280;9688;51.906;8.376;2023-01-06T07:22:41;100750.06;;;11.66;90.58
19112;BME280;9688;51.906;8.376;2023-01-06T07:25:27;100745.63;;;11.67;90.39
19112;BME280;9688;51.906;8.376;2023-01-06T07:28:13;100736.81;;;11.66;91.09
19112;BME280;9688;51.906;8.376;2023-01-06T07:30:58;100731.50;;;11.66;90.87
19112;BME280;9688;51.906;8.376;2023-01-06T07:33:45;100729.66;;;11.68;90.25
19112;BME280;9688;51.906;8.376;2023-01-06T07:39:17;100727.03;;;11.68;90.40
19112;BME280;9688;51.906;8.376;2023-01-06T07:42:03;100718.09;;;11.71;90.47
19112;BME280;9688;51.906;8.376;2023-01-06T07:44:48;100722.53;;;11.70;90.87
19112;BME280;9688;51.906;8.376;2023-01-06T07:47:33;100722.66;;;11.67;90.85
19112;BME280;9688;51.906;8.376;2023-01-06T07:50:20;100714.84;;;11.64;91.20
19112;BME280;9688;51.906;8.376;2023-01-06T07:53:07;100718.63;;;11.58;91.07
19112;BME280;9688;51.906;8.376;2023-01-06T07:55:54;100720.63;;;11.52;90.90
19112;BME280;9688;51.906;8.376;2023-01-06T07:58:42;100719.81;;;11.50;91.43
19112;BME280;9688;51.906;8.376;2023-01-06T08:01:27;100722.47;;;11.50;91.13
19112;BME280;9688;51.906;8.376;2023-01-06T08:04:12;100717.13;;;11.51;90.96
19112;BME280;9688;51.906;8.376;2023-01-06T08:06:59;100717.00;;;11.54;90.82
19112;BME280;9688;51.906;8.376;2023-01-06T08:09:45;100725.78;;;11.55;90.85
19112;BME280;9688;51.906;8.376;2023-01-06T08:12:30;100719.47;;;11.59;91.40
19112;BME280;9688;51.906;8.376;2023-01-06T08:15:16;100724.69;;;11.60;90.37
19112;BME280;9688;51.906;8.376;2023-01-06T08:18:01;100729.06;;;11.61;91.01
19112;BME280;9688;51.906;8.376;2023-01-06T08:20:49;100722.78;;;11.64;91.27
19112;BME280;9688;51.906;8.376;2023-01-06T08:23:36;100726.97;;;11.70;90.24
19112;BME280;9688;51.906;8.376;2023-01-06T08:26:22;100731.34;;;11.71;90.52
19112;BME280;9688;51.906;8.376;2023-01-06T08:29:08;100722.41;;;11.73;90.44
19112;BME280;9688;51.906;8.376;2023-01-06T08:31:54;100727.53;;;11.78;90.12
19112;BME280;9688;51.906;8.376;2023-01-06T08:34:40;100738.13;;;11.78;90.88
19112;BME280;9688;51.906;8.376;2023-01-06T08:37:26;100737.31;;;11.76;90.74
19112;BME280;9688;51.906;8.376;2023-01-06T08:40:15;100724.91;;;11.76;90.82
19112;BME280;9688;51.906;8.376;2023-01-06T08:43:02;100743.34;;;11.79;90.38
19112;BME280;9688;51.906;8.376;2023-01-06T08:45:48;100737.09;;;11.80;90.96
19112;BME280;9688;51.906;8.376;2023-01-06T08:48:34;100730.81;;;11.83;90.55
19112;BME280;9688;51.906;8.376;2023-01-06T08:51:20;100742.22;;;11.85;90.57
19112;BME280;9688;51.906;8.376;2023-01-06T08:54:06;100752.81;;;11.85;91.12
19112;BME280;9688;51.906;8.376;2023-01-06T08:56:53;100747.41;;;11.88;90.55
19112;BME280;9688;51.906;8.376;2023-01-06T08:59:39;100753.50;;;11.90;91.03
19112;BME280;9688;51.906;8.376;2023-01-06T09:02:24;100762.28;;;11.92;90.74
19112;BME280;9688;51.906;8.376;2023-01-06T09:05:12;100749.75;;;11.96;90.39
19112;BME280;9688;51.906;8.376;2023-01-06T09:07:58;100752.22;;;12.00;90.55
19112;BME280;9688;51.906;8.376;2023-01-06T09:10:44;100750.34;;;12.02;90.99
19112;BME280;9688;51.906;8.376;2023-01-06T09:13:31;100763.66;;;12.01;90.54
19112;BME280;9688;51.906;8.376;2023-01-06T09:16:17;100771.66;;;11.99;91.02
19112;BME280;9688;51.906;8.376;2023-01-06T09:19:03;100780.69;;;11.95;91.26
19112;BME280;9688;51.906;8.376;2023-01-06T09:21:49;100782.66;;;11.90;91.55
19112;BME280;9688;51.906;8.376;2023-01-06T09:24:34;100788.09;;;11.87;91.65
19112;BME280;9688;51.906;8.376;2023-01-06T09:27:20;100787.22;;;11.87;92.50
19112;BME280;9688;51.906;8.376;2023-01-06T09:30:09;100792.63;;;11.83;92.81
19112;BME280;9688;51.906;8.376;2023-01-06T09:32:56;100800.66;;;11.80;93.01
19112;BME280;9688;51.906;8.376;2023-01-06T09:35:42;100798.28;;;11.74;93.21
19112;BME280;9688;51.906;8.376;2023-01-06T09:38:28;100793.19;;;11.70;93.23
19112;BME280;9688;51.906;8.376;2023-01-06T09:41:53;100808.31;;;11.66;94.23
19112;BME280;9688;51.906;8.376;2023-01-06T09:44:49;100804.81;;;11.66;94.44
19112;BME280;9688;51.906;8.376;2023-01-06T09:47:41;100796.72;;;11.69;93.88
19112;BME280;9688;51.906;8.376;2023-01-06T09:50:33;100794.94;;;11.69;94.15
19112;BME280;9688;51.906;8.376;2023-01-06T09:53:25;100785.25;;;11.70;93.93
19112;BME280;9688;51.906;8.376;2023-01-06T09:56:15;100783.63;;;11.66;95.28
19112;BME280;9688;51.906;8.376;2023-01-06T09:59:06;100798.66;;;11.65;94.68
19112;BME280;9688;51.906;8.376;2023-01-06T10:01:53;100788.88;;;11.67;95.24
19112;BME280;9688;51.906;8.376;2023-01-06T10:04:44;100795.88;;;11.68;95.42
19112;BME280;9688;51.906;8.376;2023-01-06T10:07:35;100796.84;;;11.66;96.05
19112;BME280;9688;51.906;8.376;2023-01-06T10:10:32;100790.84;;;11.62;96.42
19112;BME280;9688;51.906;8.376;2023-01-06T10:13:31;100795.44;;;11.57;96.63
19112;BME280;9688;51.906;8.376;2023-01-06T10:16:26;100791.22;;;11.53;96.54
19112;BME280;9688;51.906;8.376;2023-01-06T10:19:20;100786.78;;;11.53;97.21
19112;BME280;9688;51.906;8.376;2023-01-06T10:22:14;100795.50;;;11.55;96.74
19112;BME280;9688;51.906;8.376;2023-01-06T10:25:05;100797.25;;;11.56;97.62
19112;BME280;9688;51.906;8.376;2023-01-06T10:28:00;100802.44;;;11.58;96.47
19112;BME280;9688;51.906;8.376;2023-01-06T10:30:47;100807.88;;;11.55;97.72
19112;BME280;9688;51.906;8.376;2023-01-06T10:33:36;100801.81;;;11.53;97.88
19112;BME280;9688;51.906;8.376;2023-01-06T10:36:28;100804.44;;;11.53;97.70
19112;BME280;9688;51.906;8.376;2023-01-06T10:39:19;100803.50;;;11.54;98.54
19112;BME280;9688;51.906;8.376;2023-01-06T10:42:15;100807.75;;;11.58;98.31
19112;BME280;9688;51.906;8.376;2023-01-06T10:45:26;100803.22;;;11.61;98.77
19112;BME280;9688;51.906;8.376;2023-01-06T10:48:17;100803.13;;;11.63;98.17
19112;BME280;9688;51.906;8.376;2023-01-06T10:51:31;100809.19;;;11.67;98.16
19112;BME280;9688;51.906;8.376;2023-01-06T10:54:21;100809.00;;;11.71;98.01
19112;BME280;9688;51.906;8.376;2023-01-06T10:57:13;100823.09;;;11.72;98.05
19112;BME280;9688;51.906;8.376;2023-01-06T11:00:12;100826.50;;;11.75;98.20
19112;BME280;9688;51.906;8.376;2023-01-06T11:03:03;100830.72;;;11.79;98.42
19112;BME280;9688;51.906;8.376;2023-01-06T11:05:59;100827.97;;;11.82;98.27
19112;BME280;9688;51.906;8.376;2023-01-06T11:08:46;100833.84;;;11.91;98.19
19112;BME280;9688;51.906;8.376;2023-01-06T11:11:45;100832.00;;;11.93;97.86
19112;BME280;9688;51.906;8.376;2023-01-06T11:14:33;100832.56;;;12.01;97.70
19112;BME280;9688;51.906;8.376;2023-01-06T11:17:21;100835.75;;;12.09;97.32
19112;BME280;9688;51.906;8.376;2023-01-06T11:20:27;100822.97;;;12.19;97.08
19112;BME280;9688;51.906;8.376;2023-01-06T11:23:19;100829.66;;;12.27;96.94
19112;BME280;9688;51.906;8.376;2023-01-06T11:26:14;100834.72;;;12.34;96.34
19112;BME280;9688;51.906;8.376;2023-01-06T11:29:17;100827.31;;;12.42;96.22
19112;BME280;9688;51.906;8.376;2023-01-06T11:32:12;100831.53;;;12.46;96.24
19112;BME280;9688;51.906;8.376;2023-01-06T11:35:02;100835.06;;;12.46;95.99
19112;BME280;9688;51.906;8.376;2023-01-06T11:37:55;100829.75;;;12.46;95.79
19112;BME280;9688;51.906;8.376;2023-01-06T11:40:42;100833.16;;;12.50;95.73
19112;BME280;9688;51.906;8.376;2023-01-06T11:43:31;100836.44;;;12.55;95.64
19112;BME280;9688;51.906;8.376;2023-01-06T11:46:20;100841.66;;;12.58;95.20
19112;BME280;9688;51.906;8.376;2023-01-06T11:49:12;100842.28;;;12.63;94.77
19112;BME280;9688;51.906;8.376;2023-01-06T11:52:01;100850.72;;;12.73;94.62
19112;BME280;9688;51.906;8.376;2023-01-06T11:54:57;100841.28;;;12.86;94.19
19112;BME280;9688;51.906;8.376;2023-01-06T11:57:48;100844.53;;;12.93;93.98
19112;BME280;9688;51.906;8.376;2023-01-06T12:00:40;100829.44;;;12.93;93.52
19112;BME280;9688;51.906;8.376;2023-01-06T12:03:36;100842.59;;;12.97;93.19
19112;BME280;9688;51.906;8.376;2023-01-06T12:06:29;100847.13;;;13.13;92.73
19112;BME280;9688;51.906;8.376;2023-01-06T12:09:22;100826.09;;;13.29;91.96
19112;BME280;9688;51.906;8.376;2023-01-06T12:12:17;100835.16;;;13.44;91.51
19112;BME280;9688;51.906;8.376;2023-01-06T12:15:10;100826.59;;;13.56;90.85
19112;BME280;9688;51.906;8.376;2023-01-06T12:17:59;100837.88;;;13.61;90.28
19112;BME280;9688;51.906;8.376;2023-01-06T12:20:50;100833.34;;;13.64;90.24
19112;BME280;9688;51.906;8.376;2023-01-06T12:23:40;100834.69;;;13.72;89.69
19112;BME280;9688;51.906;8.376;2023-01-06T12:26:27;100823.78;;;13.78;89.61
19112;BME280;9688;51.906;8.376;2023-01-06T12:29:17;100829.28;;;13.74;89.17
19112;BME280;9688;51.906;8.376;2023-01-06T12:32:07;100819.81;;;13.68;89.00
19112;BME280;9688;51.906;8.376;2023-01-06T12:34:59;100828.31;;;13.57;89.22
19112;BME280;9688;51.906;8.376;2023-01-06T12:37:53;100826.38;;;13.42;88.91
19112;BME280;9688;51.906;8.376;2023-01-06T12:40:44;100834.91;;;13.30;89.11
19112;BME280;9688;51.906;8.376;2023-01-06T12:43:36;100834.38;;;13.22;89.15
19112;BME280;9688;51.906;8.376;2023-01-06T12:46:29;100840.75;;;13.17;89.24
19112;BME280;9688;51.906;8.376;2023-01-06T12:49:20;100843.13;;;13.24;89.36
19112;BME280;9688;51.906;8.376;2023-01-06T12:52:14;100844.38;;;13.35;89.09
19112;BME280;9688;51.906;8.376;2023-01-06T12:55:04;100842.97;;;13.47;88.62
19112;BME280;9688;51.906;8.376;2023-01-06T12:57:54;100840.22;;;13.49;87.81
19112;BME280;9688;51.906;8.376;2023-01-06T13:00:48;100848.13;;;13.50;88.24
19112;BME280;9688;51.906;8.376;2023-01-06T13:04:00;100848.53;;;13.41;88.12
19112;BME280;9688;51.906;8.376;2023-01-06T13:06:58;100838.88;;;13.40;88.02
19112;BME280;9688;51.906;8.376;2023-01-06T13:09:56;100841.38;;;13.43;87.93
19112;BME280;9688;51.906;8.376;2023-01-06T13:13:15;100847.03;;;13.35;87.79
19112;BME280;9688;51.906;8.376;2023-01-06T13:16:14;100852.09;;;13.21;88.20
19112;BME280;9688;51.906;8.376;2023-01-06T13:19:09;100854.88;;;13.18;88.03
19112;BME280;9688;51.906;8.376;2023-01-06T13:22:01;100853.09;;;13.18;88.24
19112;BME280;9688;51.906;8.376;2023-01-06T13:25:05;100847.63;;;13.22;88.17
19112;BME280;9688;51.906;8.376;2023-01-06T13:28:07;100845.66;;;13.27;87.79
19112;BME280;9688;51.906;8.376;2023-01-06T13:34:33;100852.81;;;13.45;86.84
19112;BME280;9688;51.906;8.376;2023-01-06T13:37:33;100853.66;;;13.46;86.78
19112;BME280;9688;51.906;8.376;2023-01-06T13:40:23;100850.13;;;13.45;86.80
19112;BME280;9688;51.906;8.376;2023-01-06T13:43:18;100842.31;;;13.42;86.56
19112;BME280;9688;51.906;8.376;2023-01-06T13:46:09;100843.13;;;13.44;86.28
19112;BME280;9688;51.906;8.376;2023-01-06T13:48:59;100845.84;;;13.43;86.17
19112;BME280;9688;51.906;8.376;2023-01-06T13:51:46;100859.31;;;13.38;86.59
19112;BME280;9688;51.906;8.376;2023-01-06T13:54:59;100846.28;;;13.33;86.32
19112;BME280;9688;51.906;8.376;2023-01-06T13:57:45;100858.59;;;13.34;86.35
19112;BME280;9688;51.906;8.376;2023-01-06T14:00:34;100853.50;;;13.30;86.28
19112;BME280;9688;51.906;8.376;2023-01-06T14:03:22;100858.75;;;13.31;86.25
19112;BME280;9688;51.906;8.376;2023-01-06T14:06:11;100861.31;;;13.33;86.08
19112;BME280;9688;51.906;8.376;2023-01-06T14:08:59;100857.16;;;13.27;86.15
19112;BME280;9688;51.906;8.376;2023-01-06T14:11:45;100862.66;;;13.23;86.34
19112;BME280;9688;51.906;8.376;2023-01-06T14:14:33;100862.00;;;13.17;86.05
19112;BME280;9688;51.906;8.376;2023-01-06T14:17:35;100866.72;;;13.11;86.17
19112;BME280;9688;51.906;8.376;2023-01-06T14:20:26;100862.44;;;13.08;86.00
19112;BME280;9688;51.906;8.376;2023-01-06T14:23:21;100860.00;;;13.23;85.33
19112;BME280;9688;51.906;8.376;2023-01-06T14:26:10;100863.06;;;13.34;84.66
19112;BME280;9688;51.906;8.376;2023-01-06T14:36:04;100871.72;;;12.98;85.19
19112;BME280;9688;51.906;8.376;2023-01-06T14:38:58;100876.56;;;12.88;85.59
19112;BME280;9688;51.906;8.376;2023-01-06T14:41:53;100883.00;;;12.83;85.33
19112;BME280;9688;51.906;8.376;2023-01-06T14:44:45;100875.44;;;12.73;85.75
19112;BME280;9688;51.906;8.376;2023-01-06T14:47:37;100873.25;;;12.63;85.52
19112;BME280;9688;51.906;8.376;2023-01-06T14:50:31;100878.88;;;12.55;85.71
19112;BME280;9688;51.906;8.376;2023-01-06T14:53:27;100874.81;;;12.46;85.98
19112;BME280;9688;51.906;8.376;2023-01-06T14:56:17;100882.31;;;12.37;86.49
19112;BME280;9688;51.906;8.376;2023-01-06T14:59:12;100877.38;;;12.27;86.77
19112;BME280;9688;51.906;8.376;2023-01-06T15:02:02;100872.56;;;12.17;87.38
19112;BME280;9688;51.906;8.376;2023-01-06T15:04:54;100879.94;;;12.09;87.80
19112;BME280;9688;51.906;8.376;2023-01-06T15:07:54;100878.59;;;11.98;87.34
19112;BME280;9688;51.906;8.376;2023-01-06T15:10:45;100877.97;;;11.92;87.86
19112;BME280;9688;51.906;8.376;2023-01-06T15:13:31;100878.16;;;11.87;88.15